sensor_id;sensor_type;location;lat;lon;timestamp;pressure;altitude;pressure_sealevel;temperature;humidity
8051;BME280;4068;42.158;24.732;2023-07-08T00:01:13;99498.69;;;23.74;89.56
8051;BME280;4068;42.158;24.732;2023-07-08T00:03:39;99527.22;;;23.90;89.40
8051;BME280;4068;42.158;24.732;2023-07-08T00:06:10;99521.16;;;23.82;89.93
8051;BME280;4068;42.158;24.732;2023-07-08T00:08:36;99521.53;;;23.85;89.54
8051;BME280;4068;42.158;24.732;2023-07-08T00:11:08;99520.34;;;23.88;89.09
8051;BME280;4068;42.158;24.732;2023-07-08T00:13:34;99496.38;;;23.71;88.92
8051;BME280;4068;42.158;24.732;2023-07-08T00:16:00;99524.50;;;23.90;88.17
8051;BME280;4068;42.158;24.732;2023-07-08T00:18:25;99515.13;;;23.93;87.84
8051;BME280;4068;42.158;24.732;2023-07-08T00:20:51;99499.50;;;23.82;87.78
8051;BME280;4068;42.158;24.732;2023-07-08T00:23:17;99516.56;;;23.95;87.08
8051;BME280;4068;42.158;24.732;2023-07-08T00:25:47;99514.47;;;23.98;86.46
8051;BME280;4068;42.158;24.732;2023-07-08T00:28:17;99505.53;;;23.90;86.32
8051;BME280;4068;42.158;24.732;2023-07-08T00:30:43;99511.56;;;23.99;85.62
8051;BME280;4068;42.158;24.732;2023-07-08T00:33:09;99521.53;;;24.05;85.46
8051;BME280;4068;42.158;24.732;2023-07-08T00:35:35;99519.69;;;24.06;85.73
8051;BME280;4068;42.158;24.732;2023-07-08T00:41:11;99521.16;;;24.02;85.84
8051;BME280;4068;42.158;24.732;2023-07-08T00:43:40;99522.59;;;23.98;86.13
8051;BME280;4068;42.158;24.732;2023-07-08T00:49:34;99528.22;;;23.83;86.71
8051;BME280;4068;42.158;24.732;2023-07-08T00:54:52;99546.75;;;23.72;87.42
8051;BME280;4068;42.158;24.732;2023-07-08T00:57:18;99542.19;;;23.66;87.34
8051;BME280;4068;42.158;24.732;2023-07-08T00:59:56;99518.91;;;23.52;87.33
8051;BME280;4068;42.158;24.732;2023-07-08T01:02:25;99537.22;;;23.63;87.90
8051;BME280;4068;42.158;24.732;2023-07-08T01:04:56;99523.66;;;23.56;88.04
8051;BME280;4068;42.158;24.732;2023-07-08T01:07:25;99541.78;;;23.49;88.58
8051;BME280;4068;42.158;24.732;2023-07-08T01:10:04;99548.44;;;23.40;88.92
8051;BME280;4068;42.158;24.732;2023-07-08T01:12:37;99520.94;;;23.23;89.02
8051;BME280;4068;42.158;24.732;2023-07-08T01:15:06;99546.97;;;23.31;89.39
8051;BME280;4068;42.158;24.732;2023-07-08T01:17:33;99536.34;;;23.22;89.75
8051;BME280;4068;42.158;24.732;2023-07-08T01:20:04;99545.09;;;23.18;89.44
8051;BME280;4068;42.158;24.732;2023-07-08T01:22:38;99517.34;;;22.96;89.73
8051;BME280;4068;42.158;24.732;2023-07-08T01:25:05;99517.34;;;22.96;89.40
8051;BME280;4068;42.158;24.732;2023-07-08T01:27:34;99518.41;;;22.95;89.60
8051;BME280;4068;42.158;24.732;2023-07-08T01:30:02;99548.41;;;23.13;89.65
8051;BME280;4068;42.158;24.732;2023-07-08T01:32:28;99552.16;;;23.12;89.75
8051;BME280;4068;42.158;24.732;2023-07-08T01:34:59;99540.88;;;23.08;89.59
8051;BME280;4068;42.158;24.732;2023-07-08T01:37:41;99544.47;;;23.22;89.34
8051;BME280;4068;42.158;24.732;2023-07-08T01:42:54;99549.47;;;23.19;89.45
8051;BME280;4068;42.158;24.732;2023-07-08T01:45:22;99534.44;;;23.09;89.14
8051;BME280;4068;42.158;24.732;2023-07-08T01:48:02;99557.16;;;23.22;88.80
8051;BME280;4068;42.158;24.732;2023-07-08T01:50:31;99557.59;;;23.19;89.11
8051;BME280;4068;42.158;24.732;2023-07-08T01:52:59;99558.41;;;23.19;89.14
8051;BME280;4068;42.158;24.732;2023-07-08T01:55:26;99561.72;;;23.21;88.97
8051;BME280;4068;42.158;24.732;2023-07-08T01:57:54;99557.75;;;23.17;89.02
8051;BME280;4068;42.158;24.732;2023-07-08T02:00:21;99564.22;;;23.16;88.79
8051;BME280;4068;42.158;24.732;2023-07-08T02:02:47;99559.59;;;23.10;88.77
8051;BME280;4068;42.158;24.732;2023-07-08T02:05:13;99556.25;;;23.01;88.83
8051;BME280;4068;42.158;24.732;2023-07-08T02:07:39;99559.59;;;23.10;88.70
8051;BME280;4068;42.158;24.732;2023-07-08T02:10:05;99558.16;;;23.07;88.50
8051;BME280;4068;42.158;24.732;2023-07-08T02:12:30;99547.28;;;22.94;88.55
8051;BME280;4068;42.158;24.732;2023-07-08T02:14:56;99566.66;;;23.04;88.55
8051;BME280;4068;42.158;24.732;2023-07-08T02:17:21;99566.66;;;23.04;88.65
8051;BME280;4068;42.158;24.732;2023-07-08T02:19:46;99575.19;;;23.01;88.44
8051;BME280;4068;42.158;24.732;2023-07-08T02:22:12;99558.94;;;22.88;88.70
8051;BME280;4068;42.158;24.732;2023-07-08T02:24:37;99570.16;;;22.91;88.82
8051;BME280;4068;42.158;24.732;2023-07-08T02:27:03;99571.63;;;22.87;88.84
8051;BME280;4068;42.158;24.732;2023-07-08T02:29:29;99576.81;;;22.82;89.55
8051;BME280;4068;42.158;24.732;2023-07-08T02:31:57;99582.22;;;22.82;89.54
8051;BME280;4068;42.158;24.732;2023-07-08T02:34:22;99582.63;;;22.79;89.37
8051;BME280;4068;42.158;24.732;2023-07-08T02:36:48;99563.19;;;22.55;89.84
8051;BME280;4068;42.158;24.732;2023-07-08T02:39:14;99571.28;;;22.55;89.92
8051;BME280;4068;42.158;24.732;2023-07-08T02:41:39;99562.72;;;22.45;90.58
8051;BME280;4068;42.158;24.732;2023-07-08T02:44:04;99591.66;;;22.58;90.83
8051;BME280;4068;42.158;24.732;2023-07-08T02:46:30;99590.19;;;22.55;90.67
8051;BME280;4068;42.158;24.732;2023-07-08T02:48:55;99591.03;;;22.56;90.55
8051;BME280;4068;42.158;24.732;2023-07-08T02:51:21;99565.63;;;22.44;90.05
8051;BME280;4068;42.158;24.732;2023-07-08T02:53:48;99575.66;;;22.56;89.53
8051;BME280;4068;42.158;24.732;2023-07-08T02:56:14;99607.06;;;22.64;89.62
8051;BME280;4068;42.158;24.732;2023-07-08T02:58:40;99605.22;;;22.71;88.97
8051;BME280;4068;42.158;24.732;2023-07-08T03:01:05;99579.44;;;22.62;88.47
8051;BME280;4068;42.158;24.732;2023-07-08T03:03:31;99606.94;;;22.86;87.94
8051;BME280;4068;42.158;24.732;2023-07-08T03:06:02;99600.69;;;22.79;88.11
8051;BME280;4068;42.158;24.732;2023-07-08T03:08:29;99612.38;;;22.92;87.32
8051;BME280;4068;42.158;24.732;2023-07-08T03:10:59;99621.31;;;22.86;87.62
8051;BME280;4068;42.158;24.732;2023-07-08T03:13:26;99624.44;;;22.90;87.39
8051;BME280;4068;42.158;24.732;2023-07-08T03:15:52;99621.53;;;22.91;87.60
8051;BME280;4068;42.158;24.732;2023-07-08T03:18:20;99627.78;;;22.92;87.38
8051;BME280;4068;42.158;24.732;2023-07-08T03:20:47;99629.03;;;22.89;87.47
8051;BME280;4068;42.158;24.732;2023-07-08T03:23:13;99628.78;;;22.78;88.17
8051;BME280;4068;42.158;24.732;2023-07-08T03:25:39;99630.00;;;22.75;88.35
8051;BME280;4068;42.158;24.732;2023-07-08T03:28:06;99636.59;;;22.66;88.84
8051;BME280;4068;42.158;24.732;2023-07-08T03:30:32;99635.97;;;22.64;88.40
8051;BME280;4068;42.158;24.732;2023-07-08T03:32:59;99642.88;;;22.73;88.45
8051;BME280;4068;42.158;24.732;2023-07-08T03:35:25;99645.38;;;22.74;87.86
8051;BME280;4068;42.158;24.732;2023-07-08T03:37:51;99642.03;;;22.72;88.15
8051;BME280;4068;42.158;24.732;2023-07-08T03:40:17;99640.56;;;22.70;88.60
8051;BME280;4068;42.158;24.732;2023-07-08T03:42:42;99650.97;;;22.73;88.37
8051;BME280;4068;42.158;24.732;2023-07-08T03:45:08;99653.88;;;22.71;88.49
8051;BME280;4068;42.158;24.732;2023-07-08T03:47:34;99658.00;;;22.67;89.10
8051;BME280;4068;42.158;24.732;2023-07-08T03:49:59;99658.06;;;22.74;88.98
8051;BME280;4068;42.158;24.732;2023-07-08T03:52:25;99638.94;;;22.69;88.25
8051;BME280;4068;42.158;24.732;2023-07-08T03:54:50;99667.69;;;22.83;88.27
8051;BME280;4068;42.158;24.732;2023-07-08T03:57:16;99643.88;;;22.65;88.67
8051;BME280;4068;42.158;24.732;2023-07-08T03:59:41;99674.16;;;22.89;88.03
8051;BME280;4068;42.158;24.732;2023-07-08T04:02:10;99674.78;;;22.91;87.79
8051;BME280;4068;42.158;24.732;2023-07-08T04:04:35;99671.06;;;22.99;87.68
8051;BME280;4068;42.158;24.732;2023-07-08T04:07:03;99681.09;;;23.05;87.07
8051;BME280;4068;42.158;24.732;2023-07-08T04:09:29;99684.69;;;23.12;86.73
8051;BME280;4068;42.158;24.732;2023-07-08T04:11:54;99689.91;;;23.20;86.82
8051;BME280;4068;42.158;24.732;2023-07-08T04:14:20;99677.44;;;23.33;85.79
8051;BME280;4068;42.158;24.732;2023-07-08T04:16:57;99682.13;;;23.59;84.20
8051;BME280;4068;42.158;24.732;2023-07-08T04:19:24;99683.22;;;23.91;82.55
8051;BME280;4068;42.158;24.732;2023-07-08T04:21:50;99689.25;;;24.27;80.99
8051;BME280;4068;42.158;24.732;2023-07-08T04:24:17;99688.19;;;24.61;78.71
8051;BME280;4068;42.158;24.732;2023-07-08T04:26:44;99695.63;;;24.93;77.91
8051;BME280;4068;42.158;24.732;2023-07-08T04:29:19;99676.78;;;25.05;75.66
8051;BME280;4068;42.158;24.732;2023-07-08T04:31:45;99685.66;;;25.25;75.28
8051;BME280;4068;42.158;24.732;2023-07-08T04:34:11;99688.91;;;25.47;73.62
8051;BME280;4068;42.158;24.732;2023-07-08T04:36:37;99662.13;;;25.58;73.44
8051;BME280;4068;42.158;24.732;2023-07-08T04:39:04;99679.75;;;26.06;70.77
8051;BME280;4068;42.158;24.732;2023-07-08T04:41:30;99662.88;;;26.22;69.07
8051;BME280;4068;42.158;24.732;2023-07-08T04:43:56;99667.19;;;26.55;68.63
8051;BME280;4068;42.158;24.732;2023-07-08T04:46:41;99661.81;;;26.48;67.16
8051;BME280;4068;42.158;24.732;2023-07-08T04:49:08;99674.19;;;26.19;68.74
8051;BME280;4068;42.158;24.732;2023-07-08T04:51:40;99669.72;;;25.99;70.25
8051;BME280;4068;42.158;24.732;2023-07-08T04:54:06;99668.09;;;25.98;70.60
8051;BME280;4068;42.158;24.732;2023-07-08T04:56:44;99652.66;;;25.92;70.32
8051;BME280;4068;42.158;24.732;2023-07-08T04:59:12;99658.38;;;25.84;70.36
8051;BME280;4068;42.158;24.732;2023-07-08T05:01:38;99649.13;;;25.92;71.09
8051;BME280;4068;42.158;24.732;2023-07-08T05:04:05;99647.69;;;25.89;69.51
8051;BME280;4068;42.158;24.732;2023-07-08T05:06:32;99654.50;;;25.98;69.79
8051;BME280;4068;42.158;24.732;2023-07-08T05:08:58;99651.47;;;25.88;69.86
8051;BME280;4068;42.158;24.732;2023-07-08T05:11:24;99650.13;;;25.97;69.76
8051;BME280;4068;42.158;24.732;2023-07-08T05:13:50;99664.06;;;26.08;69.96
8051;BME280;4068;42.158;24.732;2023-07-08T05:16:16;99647.13;;;26.12;70.04
8051;BME280;4068;42.158;24.732;2023-07-08T05:18:41;99641.97;;;26.04;69.77
8051;BME280;4068;42.158;24.732;2023-07-08T05:21:06;99651.69;;;26.12;69.49
8051;BME280;4068;42.158;24.732;2023-07-08T05:23:33;99662.84;;;26.04;69.91
8051;BME280;4068;42.158;24.732;2023-07-08T05:26:00;99665.81;;;25.95;69.09
8051;BME280;4068;42.158;24.732;2023-07-08T05:28:26;99657.75;;;25.82;70.84
8051;BME280;4068;42.158;24.732;2023-07-08T05:30:55;99662.94;;;25.90;71.58
8051;BME280;4068;42.158;24.732;2023-07-08T05:33:23;99660.63;;;25.94;70.13
8051;BME280;4068;42.158;24.732;2023-07-08T05:35:49;99657.44;;;25.97;70.32
8051;BME280;4068;42.158;24.732;2023-07-08T05:38:15;99657.28;;;25.92;69.18
8051;BME280;4068;42.158;24.732;2023-07-08T05:40:40;99660.66;;;25.87;69.81
8051;BME280;4068;42.158;24.732;2023-07-08T05:43:06;99651.50;;;25.81;69.14
8051;BME280;4068;42.158;24.732;2023-07-08T05:45:32;99649.78;;;25.87;69.44
8051;BME280;4068;42.158;24.732;2023-07-08T05:47:57;99635.94;;;25.95;69.07
8051;BME280;4068;42.158;24.732;2023-07-08T05:50:23;99638.09;;;26.12;68.78
8051;BME280;4068;42.158;24.732;2023-07-08T05:52:48;99631.47;;;26.26;67.69
8051;BME280;4068;42.158;24.732;2023-07-08T05:55:14;99631.59;;;26.38;67.47
8051;BME280;4068;42.158;24.732;2023-07-08T05:57:39;99637.09;;;26.50;67.36
8051;BME280;4068;42.158;24.732;2023-07-08T06:00:06;99634.97;;;26.52;65.91
8051;BME280;4068;42.158;24.732;2023-07-08T06:02:31;99609.84;;;26.38;66.40
8051;BME280;4068;42.158;24.732;2023-07-08T06:04:57;99627.25;;;26.30;66.48
8051;BME280;4068;42.158;24.732;2023-07-08T06:07:22;99619.50;;;26.34;65.40
8051;BME280;4068;42.158;24.732;2023-07-08T06:09:48;99618.00;;;26.38;66.00
8051;BME280;4068;42.158;24.732;2023-07-08T06:12:13;99631.69;;;26.68;64.94
8051;BME280;4068;42.158;24.732;2023-07-08T06:14:39;99606.91;;;26.58;63.22
8051;BME280;4068;42.158;24.732;2023-07-08T06:17:05;99623.00;;;26.60;63.56
8051;BME280;4068;42.158;24.732;2023-07-08T06:19:30;99619.13;;;26.49;64.91
8051;BME280;4068;42.158;24.732;2023-07-08T06:21:56;99609.09;;;26.31;65.28
8051;BME280;4068;42.158;24.732;2023-07-08T06:24:21;99600.38;;;26.41;64.72
8051;BME280;4068;42.158;24.732;2023-07-08T06:26:47;99630.00;;;26.67;64.45
8051;BME280;4068;42.158;24.732;2023-07-08T06:29:12;99620.88;;;26.80;63.24
8051;BME280;4068;42.158;24.732;2023-07-08T06:31:38;99603.75;;;26.80;63.95
8051;BME280;4068;42.158;24.732;2023-07-08T06:34:03;99621.00;;;27.04;63.75
8051;BME280;4068;42.158;24.732;2023-07-08T06:36:30;99621.81;;;27.04;62.11
8051;BME280;4068;42.158;24.732;2023-07-08T06:38:55;99628.69;;;27.07;62.26
8051;BME280;4068;42.158;24.732;2023-07-08T06:41:21;99619.56;;;27.01;61.18
8051;BME280;4068;42.158;24.732;2023-07-08T06:43:46;99631.94;;;27.16;61.93
8051;BME280;4068;42.158;24.732;2023-07-08T06:46:12;99619.78;;;27.30;60.78
8051;BME280;4068;42.158;24.732;2023-07-08T06:48:38;99626.41;;;27.53;59.63
8051;BME280;4068;42.158;24.732;2023-07-08T06:51:03;99625.66;;;27.46;58.81
8051;BME280;4068;42.158;24.732;2023-07-08T06:53:28;99622.34;;;27.44;58.54
8051;BME280;4068;42.158;24.732;2023-07-08T06:55:54;99604.53;;;27.29;59.14
8051;BME280;4068;42.158;24.732;2023-07-08T06:58:19;99611.47;;;27.44;57.95
8051;BME280;4068;42.158;24.732;2023-07-08T07:00:45;99626.53;;;27.58;56.97
8051;BME280;4068;42.158;24.732;2023-07-08T07:03:11;99629.13;;;27.53;57.77
8051;BME280;4068;42.158;24.732;2023-07-08T07:05:37;99638.16;;;27.65;57.18
8051;BME280;4068;42.158;24.732;2023-07-08T07:08:04;99641.22;;;27.69;56.42
8051;BME280;4068;42.158;24.732;2023-07-08T07:10:30;99625.84;;;27.75;56.93
8051;BME280;4068;42.158;24.732;2023-07-08T07:12:55;99628.84;;;27.97;56.29
8051;BME280;4068;42.158;24.732;2023-07-08T07:15:20;99649.13;;;28.01;56.01
8051;BME280;4068;42.158;24.732;2023-07-08T07:17:46;99646.88;;;28.21;55.08
8051;BME280;4068;42.158;24.732;2023-07-08T07:20:12;99653.75;;;28.12;54.49
8051;BME280;4068;42.158;24.732;2023-07-08T07:22:37;99649.81;;;27.96;55.55
8051;BME280;4068;42.158;24.732;2023-07-08T07:25:03;99655.34;;;27.78;56.72
8051;BME280;4068;42.158;24.732;2023-07-08T07:27:29;99665.41;;;27.77;56.93
8051;BME280;4068;42.158;24.732;2023-07-08T07:29:54;99638.72;;;27.67;56.66
8051;BME280;4068;42.158;24.732;2023-07-08T07:32:38;99661.72;;;27.83;57.13
8051;BME280;4068;42.158;24.732;2023-07-08T07:35:05;99673.97;;;27.93;56.95
8051;BME280;4068;42.158;24.732;2023-07-08T07:37:31;99673.00;;;27.87;56.81
8051;BME280;4068;42.158;24.732;2023-07-08T07:39:56;99669.19;;;27.76;57.28
8051;BME280;4068;42.158;24.732;2023-07-08T07:42:21;99662.25;;;27.92;57.47
8051;BME280;4068;42.158;24.732;2023-07-08T07:44:47;99669.88;;;28.14;57.53
8051;BME280;4068;42.158;24.732;2023-07-08T07:47:13;99669.88;;;28.26;55.54
8051;BME280;4068;42.158;24.732;2023-07-08T07:49:39;99660.03;;;28.24;55.38
8051;BME280;4068;42.158;24.732;2023-07-08T07:52:05;99632.78;;;28.36;54.61
8051;BME280;4068;42.158;24.732;2023-07-08T07:54:30;99662.28;;;28.75;53.24
8051;BME280;4068;42.158;24.732;2023-07-08T07:56:56;99666.44;;;29.06;53.47
8051;BME280;4068;42.158;24.732;2023-07-08T07:59:22;99646.66;;;28.99;51.72
8051;BME280;4068;42.158;24.732;2023-07-08T08:01:47;99643.56;;;28.96;51.26
8051;BME280;4068;42.158;24.732;2023-07-08T08:04:13;99666.38;;;28.89;52.06
8051;BME280;4068;42.158;24.732;2023-07-08T08:06:38;99668.75;;;28.86;51.61
8051;BME280;4068;42.158;24.732;2023-07-08T08:09:05;99673.34;;;28.97;51.62
8051;BME280;4068;42.158;24.732;2023-07-08T08:11:30;99676.78;;;29.04;50.56
8051;BME280;4068;42.158;24.732;2023-07-08T08:13:56;99669.13;;;29.18;49.62
8051;BME280;4068;42.158;24.732;2023-07-08T08:16:22;99678.28;;;29.24;49.39
8051;BME280;4068;42.158;24.732;2023-07-08T08:18:47;99672.94;;;29.29;49.47
8051;BME280;4068;42.158;24.732;2023-07-08T08:21:13;99665.69;;;29.23;49.23
8051;BME280;4068;42.158;24.732;2023-07-08T08:23:39;99643.63;;;29.13;49.25
8051;BME280;4068;42.158;24.732;2023-07-08T08:26:04;99663.00;;;29.40;49.28
8051;BME280;4068;42.158;24.732;2023-07-08T08:28:30;99670.66;;;29.55;49.23
8051;BME280;4068;42.158;24.732;2023-07-08T08:30:55;99662.78;;;29.58;48.38
8051;BME280;4068;42.158;24.732;2023-07-08T08:33:21;99652.88;;;29.52;48.72
8051;BME280;4068;42.158;24.732;2023-07-08T08:35:47;99675.03;;;29.85;47.92
8051;BME280;4068;42.158;24.732;2023-07-08T08:38:12;99677.94;;;30.12;47.70
8051;BME280;4068;42.158;24.732;2023-07-08T08:40:42;99673.84;;;30.32;46.65
8051;BME280;4068;42.158;24.732;2023-07-08T08:43:23;99664.81;;;30.31;46.24
8051;BME280;4068;42.158;24.732;2023-07-08T08:49:05;99672.66;;;30.61;44.98
8051;BME280;4068;42.158;24.732;2023-07-08T08:51:33;99673.22;;;31.03;43.85
8051;BME280;4068;42.158;24.732;2023-07-08T08:53:59;99654.28;;;31.23;42.95
8051;BME280;4068;42.158;24.732;2023-07-08T08:56:39;99687.47;;;31.54;42.22
8051;BME280;4068;42.158;24.732;2023-07-08T08:59:14;99680.25;;;31.75;42.20
8051;BME280;4068;42.158;24.732;2023-07-08T09:01:42;99672.47;;;31.62;41.72
8051;BME280;4068;42.158;24.732;2023-07-08T09:04:13;99677.84;;;31.52;42.15
8051;BME280;4068;42.158;24.732;2023-07-08T09:06:42;99700.56;;;31.52;42.46
8051;BME280;4068;42.158;24.732;2023-07-08T09:09:18;99692.81;;;31.44;41.68
8051;BME280;4068;42.158;24.732;2023-07-08T09:12:04;99694.44;;;31.40;41.87
8051;BME280;4068;42.158;24.732;2023-07-08T09:14:33;99691.69;;;31.40;42.45
8051;BME280;4068;42.158;24.732;2023-07-08T09:17:28;99687.31;;;31.66;42.10
8051;BME280;4068;42.158;24.732;2023-07-08T09:27:34;99681.78;;;30.89;43.54
8051;BME280;4068;42.158;24.732;2023-07-08T09:29:59;99689.72;;;30.91;44.08
8051;BME280;4068;42.158;24.732;2023-07-08T09:32:27;99667.50;;;30.65;43.44
8051;BME280;4068;42.158;24.732;2023-07-08T09:35:03;99649.84;;;30.73;42.74
8051;BME280;4068;42.158;24.732;2023-07-08T09:37:31;99656.53;;;31.04;43.29
8051;BME280;4068;42.158;24.732;2023-07-08T09:39:59;99662.22;;;31.25;42.16
8051;BME280;4068;42.158;24.732;2023-07-08T09:42:30;99653.19;;;31.52;41.79
8051;BME280;4068;42.158;24.732;2023-07-08T09:45:11;99657.22;;;31.71;41.33
8051;BME280;4068;42.158;24.732;2023-07-08T09:47:37;99628.97;;;31.71;41.47
8051;BME280;4068;42.158;24.732;2023-07-08T09:50:20;99664.59;;;32.03;40.69
8051;BME280;4068;42.158;24.732;2023-07-08T09:52:48;99641.19;;;31.58;40.95
8051;BME280;4068;42.158;24.732;2023-07-08T09:55:14;99641.53;;;31.39;41.53
8051;BME280;4068;42.158;24.732;2023-07-08T09:57:40;99620.97;;;31.09;42.56
8051;BME280;4068;42.158;24.732;2023-07-08T10:00:09;99631.16;;;31.14;42.18
8051;BME280;4068;42.158;24.732;2023-07-08T10:02:55;99627.66;;;30.96;42.68
8051;BME280;4068;42.158;24.732;2023-07-08T10:05:39;99623.03;;;30.75;42.76
8051;BME280;4068;42.158;24.732;2023-07-08T10:08:16;99622.69;;;30.71;43.68
8051;BME280;4068;42.158;24.732;2023-07-08T10:10:42;99636.25;;;30.61;42.86
8051;BME280;4068;42.158;24.732;2023-07-08T10:13:35;99632.22;;;30.46;42.50
8051;BME280;4068;42.158;24.732;2023-07-08T10:18:47;99619.88;;;30.44;43.73
8051;BME280;4068;42.158;24.732;2023-07-08T10:28:53;99581.50;;;30.39;43.71
8051;BME280;4068;42.158;24.732;2023-07-08T10:31:31;99605.53;;;30.37;43.47
8051;BME280;4068;42.158;24.732;2023-07-08T10:41:59;99595.84;;;30.68;43.71
8051;BME280;4068;42.158;24.732;2023-07-08T10:47:01;99588.44;;;31.13;42.71
8051;BME280;4068;42.158;24.732;2023-07-08T10:55:16;99583.03;;;30.96;41.65
8051;BME280;4068;42.158;24.732;2023-07-08T11:06:18;99565.72;;;31.45;40.14
8051;BME280;4068;42.158;24.732;2023-07-08T11:08:50;99571.50;;;31.48;39.39
8051;BME280;4068;42.158;24.732;2023-07-08T11:14:13;99574.47;;;31.74;40.24
8051;BME280;4068;42.158;24.732;2023-07-08T11:19:26;99575.03;;;31.76;39.58
8051;BME280;4068;42.158;24.732;2023-07-08T11:21:59;99566.00;;;31.81;39.88
8051;BME280;4068;42.158;24.732;2023-07-08T11:24:31;99543.63;;;31.94;40.13
8051;BME280;4068;42.158;24.732;2023-07-08T11:27:13;99555.03;;;32.18;40.24
8051;BME280;4068;42.158;24.732;2023-07-08T11:30:08;99568.81;;;32.34;39.70
8051;BME280;4068;42.158;24.732;2023-07-08T11:32:38;99562.34;;;32.08;40.10
8051;BME280;4068;42.158;24.732;2023-07-08T11:35:07;99547.78;;;32.02;39.11
8051;BME280;4068;42.158;24.732;2023-07-08T11:37:39;99556.03;;;32.07;39.48
8051;BME280;4068;42.158;24.732;2023-07-08T11:42:38;99540.94;;;32.63;38.52
8051;BME280;4068;42.158;24.732;2023-07-08T11:45:19;99549.00;;;32.90;38.83
8051;BME280;4068;42.158;24.732;2023-07-08T11:47:48;99551.50;;;33.07;38.45
8051;BME280;4068;42.158;24.732;2023-07-08T11:50:40;99538.91;;;33.32;38.24
8051;BME280;4068;42.158;24.732;2023-07-08T11:53:11;99570.78;;;33.53;37.36
8051;BME280;4068;42.158;24.732;2023-07-08T11:58:16;99550.16;;;33.41;37.23
8051;BME280;4068;42.158;24.732;2023-07-08T12:00:52;99551.00;;;33.41;37.21
8051;BME280;4068;42.158;24.732;2023-07-08T12:03:21;99544.94;;;33.39;36.09
8051;BME280;4068;42.158;24.732;2023-07-08T12:05:47;99549.34;;;33.61;36.30
8051;BME280;4068;42.158;24.732;2023-07-08T12:08:18;99549.91;;;33.47;37.41
8051;BME280;4068;42.158;24.732;2023-07-08T12:10:50;99530.38;;;33.85;35.95
8051;BME280;4068;42.158;24.732;2023-07-08T12:13:20;99530.53;;;34.14;35.22
8051;BME280;4068;42.158;24.732;2023-07-08T12:15:47;99537.13;;;34.34;35.48
8051;BME280;4068;42.158;24.732;2023-07-08T12:18:20;99548.16;;;34.18;35.02
8051;BME280;4068;42.158;24.732;2023-07-08T12:20:51;99549.22;;;34.22;35.08
8051;BME280;4068;42.158;24.732;2023-07-08T12:23:22;99536.91;;;34.10;35.48
8051;BME280;4068;42.158;24.732;2023-07-08T12:25:49;99540.25;;;33.91;35.28
8051;BME280;4068;42.158;24.732;2023-07-08T12:28:15;99543.00;;;33.91;35.69
8051;BME280;4068;42.158;24.732;2023-07-08T12:30:42;99544.94;;;33.60;37.13
8051;BME280;4068;42.158;24.732;2023-07-08T12:33:17;99534.50;;;33.51;36.57
8051;BME280;4068;42.158;24.732;2023-07-08T12:35:45;99545.50;;;33.51;36.51
8051;BME280;4068;42.158;24.732;2023-07-08T12:38:21;99538.91;;;33.68;35.61
8051;BME280;4068;42.158;24.732;2023-07-08T12:40:49;99527.34;;;33.66;35.18
8051;BME280;4068;42.158;24.732;2023-07-08T12:43:15;99562.53;;;33.89;34.61
8051;BME280;4068;42.158;24.732;2023-07-08T12:45:42;99569.13;;;33.63;35.16
8051;BME280;4068;42.158;24.732;2023-07-08T12:48:08;99535.28;;;33.06;35.94
8051;BME280;4068;42.158;24.732;2023-07-08T12:50:34;99555.84;;;32.88;37.12
8051;BME280;4068;42.158;24.732;2023-07-08T12:52:59;99573.69;;;32.80;36.88
8051;BME280;4068;42.158;24.732;2023-07-08T12:55:29;99574.91;;;32.46;37.49
8051;BME280;4068;42.158;24.732;2023-07-08T12:57:55;99553.81;;;32.57;36.94
8051;BME280;4068;42.158;24.732;2023-07-08T13:00:31;99565.53;;;33.26;35.75
8051;BME280;4068;42.158;24.732;2023-07-08T13:03:20;99574.63;;;33.63;36.05
8051;BME280;4068;42.158;24.732;2023-07-08T13:05:48;99588.28;;;33.06;38.62
8051;BME280;4068;42.158;24.732;2023-07-08T13:08:17;99592.44;;;32.40;40.71
8051;BME280;4068;42.158;24.732;2023-07-08T13:10:44;99582.28;;;31.98;41.01
8051;BME280;4068;42.158;24.732;2023-07-08T13:13:15;99561.31;;;31.11;42.32
8051;BME280;4068;42.158;24.732;2023-07-08T13:15:43;99628.09;;;30.44;44.91
8051;BME280;4068;42.158;24.732;2023-07-08T13:20:40;99632.19;;;28.46;56.85
8051;BME280;4068;42.158;24.732;2023-07-08T13:23:07;99609.97;;;27.71;61.79
8051;BME280;4068;42.158;24.732;2023-07-08T13:25:37;99641.31;;;27.32;66.10
8051;BME280;4068;42.158;24.732;2023-07-08T13:28:35;99649.72;;;26.44;74.13
8051;BME280;4068;42.158;24.732;2023-07-08T13:31:11;99609.28;;;24.83;80.94
8051;BME280;4068;42.158;24.732;2023-07-08T13:33:45;99639.66;;;24.33;82.76
8051;BME280;4068;42.158;24.732;2023-07-08T13:36:11;99648.41;;;24.28;84.34
8051;BME280;4068;42.158;24.732;2023-07-08T13:38:39;99623.34;;;24.40;84.66
8051;BME280;4068;42.158;24.732;2023-07-08T13:41:07;99649.47;;;24.99;80.85
8051;BME280;4068;42.158;24.732;2023-07-08T13:43:35;99646.03;;;25.56;78.99
8051;BME280;4068;42.158;24.732;2023-07-08T13:46:01;99652.00;;;26.22;75.38
8051;BME280;4068;42.158;24.732;2023-07-08T13:48:33;99649.31;;;26.59;72.73
8051;BME280;4068;42.158;24.732;2023-07-08T13:56:11;99639.16;;;26.73;69.41
8051;BME280;4068;42.158;24.732;2023-07-08T13:58:42;99643.31;;;26.94;69.33
8051;BME280;4068;42.158;24.732;2023-07-08T14:01:22;99636.06;;;27.37;68.48
8051;BME280;4068;42.158;24.732;2023-07-08T14:03:49;99638.78;;;27.91;66.50
8051;BME280;4068;42.158;24.732;2023-07-08T14:06:16;99665.59;;;28.30;60.08
8051;BME280;4068;42.158;24.732;2023-07-08T14:08:41;99688.84;;;28.44;57.90
8051;BME280;4068;42.158;24.732;2023-07-08T14:11:07;99687.75;;;28.81;56.35
8051;BME280;4068;42.158;24.732;2023-07-08T14:13:33;99696.78;;;29.22;56.04
8051;BME280;4068;42.158;24.732;2023-07-08T14:15:58;99694.41;;;29.54;53.57
8051;BME280;4068;42.158;24.732;2023-07-08T14:18:24;99698.09;;;29.31;55.57
8051;BME280;4068;42.158;24.732;2023-07-08T14:20:50;99670.78;;;28.90;57.38
8051;BME280;4068;42.158;24.732;2023-07-08T14:23:16;99697.47;;;28.53;58.90
8051;BME280;4068;42.158;24.732;2023-07-08T14:25:42;99685.28;;;28.55;59.76
8051;BME280;4068;42.158;24.732;2023-07-08T14:28:08;99692.72;;;28.60;63.17
8051;BME280;4068;42.158;24.732;2023-07-08T14:30:42;99692.28;;;28.51;65.67
8051;BME280;4068;42.158;24.732;2023-07-08T14:33:10;99667.03;;;28.44;64.42